createdAt,value
2024-01-08T10:29:23.516Z,70.44
2024-01-08T10:31:50.269Z,68.96
2024-01-08T10:34:16.975Z,75.83
2024-01-08T10:36:43.712Z,71.28
2024-01-08T10:39:11.332Z,66.37
2024-01-08T10:41:38.028Z,61.56
2024-01-08T10:44:05.016Z,58.17
2024-01-08T10:46:32.905Z,54.95
2024-01-08T10:48:59.667Z,52.63
2024-01-08T10:51:26.492Z,50.11
2024-01-08T10:53:55.030Z,48.24
2024-01-08T10:56:21.903Z,46.68
2024-01-08T10:58:48.739Z,44.99
2024-01-08T11:01:15.397Z,43.55
2024-01-08T11:03:42.151Z,42.17
2024-01-08T15:28:34.356Z,28.99
2024-01-08T15:31:03.995Z,18.19
2024-01-08T15:36:12.230Z,21.64
2024-01-08T15:38:38.967Z,29.43
2024-01-08T15:41:06.392Z,32.97
2024-01-08T15:43:33.160Z,36.67
2024-01-08T15:45:59.802Z,39.11
2024-01-08T15:48:26.618Z,41.77
2024-01-08T15:50:53.393Z,41.10
2024-01-08T15:53:23.252Z,42.78
2024-01-08T15:55:49.981Z,43.50
2024-01-08T15:58:16.677Z,43.47
2024-01-08T16:00:44.377Z,44.04
2024-01-08T16:03:12.259Z,45.71
2024-01-08T16:05:39.089Z,43.92
2024-01-08T16:08:06.024Z,46.26
2024-01-08T16:10:32.762Z,46.29
2024-01-08T16:12:59.426Z,47.05
2024-01-08T16:15:26.083Z,46.53
2024-01-08T16:17:52.825Z,45.69
2024-01-08T16:20:22.576Z,46.74
2024-01-08T16:22:49.407Z,47.12
2024-01-08T16:25:16.198Z,47.76
2024-01-08T16:27:42.976Z,47.08
2024-01-08T16:30:09.696Z,48.11
2024-01-08T16:32:36.554Z,47.93
2024-01-08T16:35:04.381Z,47.44
2024-01-08T16:37:31.181Z,46.86
2024-01-08T16:39:57.865Z,47.99
2024-01-08T16:42:24.645Z,48.77
2024-01-08T16:44:51.618Z,47.74
2024-01-08T16:47:21.899Z,48.30
2024-01-08T16:49:48.906Z,48.20
2024-01-08T16:52:15.726Z,49.17
2024-01-08T16:54:42.450Z,48.87
2024-01-08T16:57:09.400Z,49.29
2024-01-08T16:59:36.157Z,47.79
2024-01-08T17:02:03.525Z,47.90
2024-01-08T17:04:30.276Z,49.20
2024-01-08T17:06:57.351Z,48.45
2024-01-08T17:09:26.437Z,48.83
2024-01-08T17:11:53.337Z,47.30
2024-01-08T17:14:20.106Z,48.70
2024-01-08T17:16:46.825Z,49.93
2024-01-08T17:19:13.942Z,48.35
2024-01-08T17:21:40.970Z,49.27
2024-01-08T17:24:07.617Z,51.10
2024-01-08T17:26:34.638Z,49.93
2024-01-08T17:29:01.389Z,49.97
2024-01-08T17:31:28.169Z,50.05
2024-01-08T17:33:56.937Z,49.33
2024-01-08T17:36:24.418Z,49.93
2024-01-08T17:38:51.138Z,48.65
2024-01-08T17:41:17.825Z,48.88
2024-01-08T17:43:46.542Z,48.43
2024-01-08T17:46:13.249Z,49.66
2024-01-08T17:48:40.063Z,48.49
2024-01-08T17:51:07.461Z,49.55
2024-01-08T17:56:17.732Z,49.30
2024-01-08T17:58:44.549Z,49.63
2024-01-08T18:01:11.370Z,50.13
2024-01-08T18:03:38.141Z,50.78
2024-01-08T18:06:05.232Z,49.42
2024-01-08T18:08:34.157Z,50.07
2024-01-08T18:11:00.978Z,49.18
2024-01-08T18:13:27.774Z,51.30
2024-01-08T18:15:54.490Z,51.46
2024-01-08T18:18:23.483Z,51.98
2024-01-08T18:20:51.436Z,51.41
2024-01-08T18:23:19.209Z,50.45
2024-01-08T18:25:46.241Z,49.86
2024-01-08T18:28:13.072Z,50.84
2024-01-08T18:30:40.214Z,50.36
2024-01-08T18:33:07.209Z,50.26
2024-01-08T18:35:35.459Z,50.67
2024-01-08T18:38:02.392Z,51.22
2024-01-08T18:40:29.404Z,52.15
2024-01-08T18:42:56.138Z,51.35
2024-01-08T18:45:22.943Z,52.27
2024-01-08T18:47:49.779Z,52.14
2024-01-08T18:50:16.631Z,50.68
2024-01-08T18:52:43.659Z,49.85
2024-01-08T18:55:10.445Z,50.76
2024-01-08T18:57:37.148Z,50.57
2024-01-08T19:00:06.202Z,51.05
2024-01-08T19:02:34.563Z,50.78
2024-01-08T19:05:01.563Z,50.23
2024-01-08T19:07:28.797Z,50.17
2024-01-08T19:09:56.006Z,51.27
2024-01-08T19:12:22.756Z,52.10
2024-01-08T19:14:50.034Z,52.58
2024-01-08T19:17:16.885Z,54.25
2024-01-08T19:19:43.636Z,54.15
2024-01-08T19:22:10.412Z,54.42
2024-01-08T19:24:37.237Z,55.57
2024-01-08T19:27:04.474Z,53.45
2024-01-08T19:29:31.386Z,55.39
2024-01-08T19:31:58.313Z,56.77
2024-01-08T19:34:25.646Z,57.41
2024-01-08T19:36:52.456Z,57.68
2024-01-08T19:39:20.514Z,57.66
2024-01-08T19:41:48.275Z,57.82
2024-01-08T19:44:15.186Z,59.68
2024-01-08T19:46:42.246Z,58.15
2024-01-08T19:49:17.631Z,57.94
2024-01-08T19:51:51.754Z,58.81
2024-01-08T19:54:18.703Z,58.07
2024-01-08T19:56:46.359Z,58.52
2024-01-08T19:59:13.240Z,58.84
2024-01-08T20:01:41.313Z,57.21
2024-01-08T20:04:08.077Z,58.66
2024-01-08T20:06:34.970Z,58.28
2024-01-08T20:09:01.826Z,58.46
2024-01-08T20:11:28.653Z,58.96
2024-01-08T20:13:55.647Z,57.44
2024-01-08T20:16:22.427Z,58.02
2024-01-08T20:18:50.890Z,59.24
2024-01-08T20:21:18.453Z,57.07
2024-01-08T20:23:47.971Z,57.51
2024-01-08T20:26:15.278Z,58.02
2024-01-08T20:28:42.114Z,57.06
2024-01-08T20:31:10.321Z,56.10
2024-01-08T20:33:39.728Z,57.39
2024-01-08T20:36:06.805Z,57.85
2024-01-08T20:38:33.627Z,56.06
2024-01-08T20:41:00.930Z,56.04
2024-01-08T20:43:27.703Z,55.73
2024-01-08T20:45:54.689Z,56.04
2024-01-08T20:48:21.477Z,56.37
2024-01-08T20:50:48.380Z,56.04
2024-01-08T20:53:15.239Z,57.27
2024-01-08T20:55:42.077Z,56.65
2024-01-08T20:58:08.792Z,55.50
2024-01-08T21:00:35.768Z,55.88
2024-01-08T21:03:02.767Z,54.66
2024-01-08T21:05:30.231Z,55.66
2024-01-08T21:07:58.616Z,54.60
2024-01-08T21:10:25.363Z,54.12
2024-01-08T21:12:52.891Z,54.75
2024-01-08T21:15:19.995Z,55.47
2024-01-08T21:17:46.965Z,56.42
2024-01-08T21:20:13.955Z,57.16
2024-01-08T21:22:42.221Z,56.09
2024-01-08T21:25:09.275Z,55.97
2024-01-08T21:27:36.043Z,55.69
2024-01-08T21:32:45.092Z,57.19
2024-01-08T21:35:11.953Z,55.63
2024-01-08T21:37:39.259Z,55.32
2024-01-08T21:40:06.592Z,54.35
2024-01-08T21:42:33.960Z,56.57
2024-01-08T21:45:00.832Z,58.31
2024-01-08T21:47:28.342Z,59.05
2024-01-08T21:49:58.401Z,57.45
2024-01-08T21:52:25.217Z,57.17
2024-01-08T21:54:52.823Z,57.58
2024-01-08T21:57:19.625Z,57.80
2024-01-08T21:59:46.492Z,57.78
2024-01-08T22:02:13.255Z,57.75
2024-01-08T22:04:40.010Z,57.39
2024-01-08T22:07:07.066Z,58.89
2024-01-08T22:09:33.884Z,58.43
2024-01-08T22:12:00.913Z,58.05
2024-01-08T22:14:27.727Z,57.59
2024-01-08T22:16:54.541Z,57.48
2024-01-08T22:19:21.774Z,58.27
2024-01-08T22:21:48.694Z,56.70
2024-01-08T22:24:15.742Z,57.90
2024-01-08T22:26:42.594Z,58.18
2024-01-08T22:29:10.422Z,57.69
2024-01-08T22:31:37.370Z,56.62
2024-01-08T22:34:05.089Z,57.58
2024-01-08T22:36:32.279Z,57.02
2024-01-08T22:38:59.084Z,57.24
2024-01-08T22:41:26.128Z,58.17
2024-01-08T22:43:54.100Z,56.18
2024-01-08T22:46:26.617Z,56.31
2024-01-08T22:48:53.514Z,57.99
2024-01-08T22:51:22.168Z,56.99
2024-01-08T22:53:49.292Z,55.94
2024-01-08T22:56:16.122Z,55.46
2024-01-08T23:01:23.815Z,58.13
2024-01-08T23:03:51.250Z,56.79
2024-01-08T23:06:19.903Z,57.43
2024-01-08T23:08:46.917Z,58.36
2024-01-08T23:11:13.725Z,58.56
2024-01-08T23:13:40.467Z,59.34
2024-01-08T23:16:07.205Z,59.25
2024-01-08T23:18:34.323Z,58.95
2024-01-08T23:21:01.157Z,59.73
2024-01-08T23:23:27.952Z,59.44
2024-01-08T23:25:55.500Z,57.73
2024-01-08T23:28:24.253Z,57.32
2024-01-08T23:30:51.068Z,56.92
2024-01-08T23:33:19.755Z,57.62
2024-01-08T23:35:48.843Z,57.13
2024-01-08T23:38:16.076Z,57.23
2024-01-08T23:40:42.999Z,56.31
2024-01-08T23:43:11.021Z,56.98
2024-01-08T23:45:38.093Z,57.78
2024-01-08T23:48:05.151Z,57.76
2024-01-08T23:50:32.097Z,58.13
2024-01-08T23:52:58.909Z,57.86
2024-01-08T23:55:25.646Z,56.73
2024-01-08T23:57:52.455Z,56.24
